createdAt,value
2018-03-17T00:00:55.251Z,0
2018-03-17T00:01:56.861Z,0
2018-03-17T00:02:58.278Z,0
2018-03-17T00:03:59.737Z,0
2018-03-17T00:05:01.182Z,0
2018-03-17T00:06:02.695Z,0
2018-03-17T00:07:04.132Z,0
2018-03-17T00:08:05.559Z,0
2018-03-17T00:09:07.091Z,0
2018-03-17T00:10:08.553Z,0
2018-03-17T00:11:10.005Z,0
2018-03-17T00:12:11.588Z,0
2018-03-17T00:13:13.100Z,0
2018-03-17T00:14:14.474Z,0
2018-03-17T00:15:16.163Z,0
2018-03-17T00:16:17.888Z,0
2018-03-17T00:17:19.457Z,0
2018-03-17T00:18:21.002Z,0
2018-03-17T00:19:22.538Z,0
2018-03-17T00:20:24.042Z,0
2018-03-17T00:21:25.650Z,0
2018-03-17T00:22:27.121Z,0
2018-03-17T00:23:28.667Z,0
2018-03-17T00:24:30.077Z,0
2018-03-17T00:25:31.604Z,0
2018-03-17T00:26:33.303Z,0
2018-03-17T00:27:34.718Z,0
2018-03-17T00:28:37.038Z,0
2018-03-17T00:29:38.596Z,0
2018-03-17T00:30:40.067Z,0
2018-03-17T00:31:41.623Z,0
2018-03-17T00:32:43.047Z,0
2018-03-17T00:33:44.832Z,0
2018-03-17T00:34:46.540Z,0
2018-03-17T00:35:48.005Z,0
2018-03-17T00:36:49.628Z,0
2018-03-17T00:37:51.518Z,0
2018-03-17T00:38:53.384Z,0
2018-03-17T00:39:54.904Z,0
2018-03-17T00:40:56.441Z,0
2018-03-17T00:41:57.944Z,0
2018-03-17T00:42:59.412Z,0
2018-03-17T00:44:01.066Z,0
2018-03-17T00:45:02.504Z,0
2018-03-17T00:46:04.037Z,0
2018-03-17T00:47:05.763Z,0
2018-03-17T00:48:07.283Z,0
2018-03-17T00:49:08.800Z,0
2018-03-17T00:50:10.281Z,0
2018-03-17T00:51:11.774Z,0
2018-03-17T00:52:13.563Z,0
2018-03-17T00:53:15.011Z,0
2018-03-17T00:54:16.501Z,0
2018-03-17T00:55:18.214Z,0
2018-03-17T00:56:19.920Z,0
2018-03-17T00:57:21.713Z,0
2018-03-17T00:58:23.260Z,0
2018-03-17T00:59:24.708Z,0
2018-03-17T01:00:26.200Z,0
2018-03-17T01:01:27.700Z,0
2018-03-17T01:02:29.220Z,0
2018-03-17T01:03:30.688Z,0
2018-03-17T01:04:32.204Z,0
2018-03-17T01:05:33.699Z,0
2018-03-17T01:06:35.248Z,0
2018-03-17T01:07:36.894Z,0
2018-03-17T01:08:38.399Z,0
2018-03-17T01:09:39.997Z,0
2018-03-17T01:10:41.833Z,0
2018-03-17T01:11:43.743Z,0
2018-03-17T01:12:45.513Z,0
2018-03-17T01:13:47.457Z,0
2018-03-17T01:14:48.981Z,0
2018-03-17T01:15:50.438Z,0
2018-03-17T01:16:51.886Z,0
2018-03-17T01:17:53.408Z,0
2018-03-17T01:18:54.846Z,0
2018-03-17T01:19:56.499Z,0
2018-03-17T01:20:58.144Z,0
2018-03-17T01:21:59.605Z,0
2018-03-17T01:23:01.379Z,0
2018-03-17T01:24:02.771Z,0
2018-03-17T01:25:04.238Z,0
2018-03-17T01:26:05.710Z,0
2018-03-17T01:27:07.181Z,0
2018-03-17T01:28:08.933Z,0
2018-03-17T01:29:10.745Z,0
2018-03-17T01:30:12.291Z,0
2018-03-17T01:31:13.742Z,0
2018-03-17T01:32:15.211Z,0
2018-03-17T01:33:17.406Z,0
2018-03-17T01:34:18.852Z,0
2018-03-17T01:35:20.337Z,0
2018-03-17T01:36:21.807Z,0
2018-03-17T01:37:23.309Z,0
2018-03-17T01:38:25.075Z,0
2018-03-17T01:39:26.706Z,0
2018-03-17T01:40:28.427Z,0
2018-03-17T01:41:29.952Z,0
2018-03-17T01:42:31.465Z,0
2018-03-17T01:43:32.868Z,0
2018-03-17T01:44:34.489Z,0
2018-03-17T01:45:36.202Z,0
2018-03-17T01:46:38.121Z,0
2018-03-17T01:47:39.838Z,0
2018-03-17T01:48:41.570Z,0
2018-03-17T01:49:43.271Z,0
2018-03-17T01:50:44.713Z,0
2018-03-17T01:51:46.184Z,0
2018-03-17T01:52:47.650Z,0
2018-03-17T01:53:49.173Z,0
2018-03-17T01:54:50.646Z,0
2018-03-17T01:55:52.156Z,0
2018-03-17T01:56:53.586Z,0
2018-03-17T01:57:55.044Z,0
2018-03-17T01:58:56.523Z,0
2018-03-17T01:59:57.959Z,0
2018-03-17T02:00:59.448Z,0
2018-03-17T02:02:01.170Z,0
2018-03-17T02:03:02.642Z,0
2018-03-17T02:04:04.096Z,0
2018-03-17T02:05:05.552Z,0
2018-03-17T02:06:07.340Z,0
2018-03-17T02:07:09.456Z,0
2018-03-17T02:08:11.311Z,0
2018-03-17T02:09:12.824Z,0
2018-03-17T02:10:14.343Z,0
2018-03-17T02:11:15.838Z,0
2018-03-17T02:12:17.367Z,0
2018-03-17T02:13:18.788Z,0
2018-03-17T02:14:20.293Z,0
2018-03-17T02:15:22.153Z,0
2018-03-17T02:16:24.087Z,0
2018-03-17T02:17:25.529Z,0
2018-03-17T02:18:27.126Z,0
2018-03-17T02:19:28.890Z,0
2018-03-17T02:20:30.649Z,0
2018-03-17T02:21:32.244Z,0
2018-03-17T02:22:33.732Z,0
2018-03-17T02:23:35.218Z,0
2018-03-17T02:24:36.784Z,0
2018-03-17T02:25:38.251Z,0
2018-03-17T02:26:39.794Z,0
2018-03-17T02:27:41.322Z,0
2018-03-17T02:28:42.787Z,0
2018-03-17T02:29:44.494Z,0
2018-03-17T02:30:46.229Z,0
2018-03-17T02:31:48.251Z,0
2018-03-17T02:32:50.171Z,0
2018-03-17T02:33:51.993Z,0
2018-03-17T02:34:53.527Z,0
2018-03-17T02:35:55.163Z,0
2018-03-17T02:36:56.985Z,0
2018-03-17T02:37:58.697Z,0
2018-03-17T02:39:00.313Z,0
2018-03-17T02:40:01.972Z,0
2018-03-17T02:41:03.707Z,0
2018-03-17T02:42:05.142Z,0
2018-03-17T02:43:06.875Z,0
2018-03-17T02:44:08.938Z,0
2018-03-17T02:45:10.381Z,0
2018-03-17T02:46:11.946Z,0
2018-03-17T02:47:13.397Z,0
2018-03-17T02:48:14.860Z,0
2018-03-17T02:49:16.391Z,0
2018-03-17T02:50:17.883Z,0
2018-03-17T02:51:19.625Z,0
2018-03-17T02:52:21.355Z,0
2018-03-17T02:53:23.168Z,0
2018-03-17T02:54:24.651Z,0
2018-03-17T02:55:26.250Z,0
2018-03-17T02:56:27.688Z,0
2018-03-17T02:57:29.192Z,0
2018-03-17T02:58:30.653Z,0
2018-03-17T02:59:32.574Z,0
2018-03-17T03:00:34.543Z,0
2018-03-17T03:01:36.501Z,0
2018-03-17T03:02:38.326Z,0
2018-03-17T03:03:40.375Z,0
2018-03-17T03:04:42.177Z,0
2018-03-17T03:05:43.771Z,0
2018-03-17T03:06:45.820Z,0
2018-03-17T03:07:47.640Z,0
2018-03-17T03:08:49.333Z,0
2018-03-17T03:09:50.840Z,0
2018-03-17T03:10:52.576Z,0
2018-03-17T03:11:54.355Z,0
2018-03-17T03:12:56.211Z,0
2018-03-17T03:13:57.700Z,0
2018-03-17T03:14:59.208Z,0
2018-03-17T03:16:00.751Z,0
2018-03-17T03:17:02.296Z,0
2018-03-17T03:18:03.915Z,0
2018-03-17T03:19:05.385Z,0
2018-03-17T03:20:06.896Z,0
2018-03-17T03:21:08.792Z,0
2018-03-17T03:22:10.677Z,0
2018-03-17T03:23:12.886Z,0
2018-03-17T03:24:14.541Z,0
2018-03-17T03:25:15.947Z,0
2018-03-17T03:26:17.746Z,0
2018-03-17T03:27:19.273Z,0
2018-03-17T03:28:20.777Z,0
2018-03-17T03:29:22.618Z,0
2018-03-17T03:30:24.223Z,0
2018-03-17T03:31:25.855Z,0
2018-03-17T03:32:27.386Z,0
2018-03-17T03:33:29.080Z,0
2018-03-17T03:34:30.581Z,0
2018-03-17T03:35:32.316Z,0
2018-03-17T03:36:33.799Z,0
2018-03-17T03:37:35.284Z,0
2018-03-17T03:38:36.791Z,0
2018-03-17T03:39:38.606Z,0
2018-03-17T03:40:40.144Z,0
2018-03-17T03:41:41.628Z,0
2018-03-17T03:42:44.310Z,0
2018-03-17T03:43:46.068Z,0
2018-03-17T03:44:48.091Z,0
2018-03-17T03:45:49.563Z,0
2018-03-17T03:46:51.076Z,0
2018-03-17T03:47:52.592Z,0
2018-03-17T03:48:54.077Z,0
2018-03-17T03:49:55.760Z,0
2018-03-17T03:50:57.599Z,0
2018-03-17T03:51:59.143Z,0
2018-03-17T03:53:01.021Z,0
2018-03-17T03:54:02.513Z,0
2018-03-17T03:55:04.080Z,0
2018-03-17T03:56:05.970Z,0
2018-03-17T03:57:07.904Z,0
2018-03-17T03:58:09.322Z,0
2018-03-17T03:59:10.862Z,0
2018-03-17T04:00:12.497Z,0
2018-03-17T04:01:13.928Z,0
2018-03-17T04:02:15.702Z,0
2018-03-17T04:03:17.596Z,0
2018-03-17T04:04:19.084Z,0
2018-03-17T04:05:20.597Z,0
2018-03-17T04:06:22.086Z,0
2018-03-17T04:07:23.648Z,0
2018-03-17T04:08:25.551Z,0
2018-03-17T04:09:27.173Z,0
2018-03-17T04:10:28.770Z,0
2018-03-17T04:11:30.929Z,0
2018-03-17T04:12:33.130Z,0
2018-03-17T04:13:34.696Z,0
2018-03-17T04:14:36.826Z,0
2018-03-17T04:15:38.396Z,0
2018-03-17T04:16:40.499Z,0
2018-03-17T04:17:42.536Z,0
2018-03-17T04:18:44.397Z,0
2018-03-17T04:19:46.312Z,0
2018-03-17T04:20:48.274Z,0
2018-03-17T04:21:50.377Z,0
2018-03-17T04:22:51.988Z,0
2018-03-17T04:23:53.624Z,0
2018-03-17T04:24:55.118Z,0
2018-03-17T04:25:57.048Z,0
2018-03-17T04:26:58.524Z,0
2018-03-17T04:28:00.402Z,0
2018-03-17T04:29:02.517Z,0
2018-03-17T04:30:04.647Z,0
2018-03-17T04:31:06.147Z,0
2018-03-17T04:32:08.430Z,0
2018-03-17T04:33:10.054Z,0
2018-03-17T04:34:11.524Z,0
2018-03-17T04:35:13.050Z,0
2018-03-17T04:36:14.566Z,0
2018-03-17T04:37:16.717Z,0
2018-03-17T04:38:18.624Z,0
2018-03-17T04:39:20.078Z,0
2018-03-17T04:40:22.330Z,0
2018-03-17T04:41:23.857Z,0
2018-03-17T04:42:25.461Z,0
2018-03-17T04:43:26.892Z,0
2018-03-17T04:44:28.340Z,0
2018-03-17T04:45:29.893Z,0
2018-03-17T04:46:31.787Z,0
2018-03-17T04:47:33.909Z,0
2018-03-17T04:48:35.384Z,0
2018-03-17T04:49:37.179Z,0
2018-03-17T04:50:38.801Z,0
2018-03-17T04:51:40.252Z,0
2018-03-17T04:52:41.737Z,0
2018-03-17T04:53:43.339Z,0
2018-03-17T04:54:44.925Z,0
2018-03-17T04:55:46.397Z,0
2018-03-17T04:56:47.878Z,0
2018-03-17T04:57:49.682Z,0
2018-03-17T04:58:51.797Z,0
2018-03-17T04:59:53.318Z,0
2018-03-17T05:00:54.793Z,0
2018-03-17T05:01:56.463Z,0
2018-03-17T05:02:58.562Z,0
2018-03-17T05:04:00.128Z,0
2018-03-17T05:05:01.606Z,0
2018-03-17T05:06:03.156Z,0
2018-03-17T05:07:05.306Z,0
2018-03-17T05:08:07.571Z,0
2018-03-17T05:09:09.098Z,0
2018-03-17T05:10:10.862Z,0
2018-03-17T05:11:13.056Z,0
2018-03-17T05:12:14.557Z,0
2018-03-17T05:13:16.189Z,0
2018-03-17T05:14:17.846Z,0
2018-03-17T05:15:19.304Z,0
2018-03-17T05:16:21.011Z,4
2018-03-17T05:17:22.681Z,4
2018-03-17T05:18:24.150Z,0
2018-03-17T05:19:26.086Z,4
2018-03-17T05:20:27.663Z,4
2018-03-17T05:21:29.323Z,4
2018-03-17T05:22:31.273Z,4
2018-03-17T05:23:33.375Z,4
2018-03-17T05:24:35.322Z,4
2018-03-17T05:25:37.663Z,8
2018-03-17T05:26:39.159Z,8
2018-03-17T05:27:41.143Z,8
2018-03-17T05:28:42.686Z,8
2018-03-17T05:29:44.282Z,12
2018-03-17T05:30:45.791Z,12
2018-03-17T05:31:47.778Z,16
2018-03-17T05:32:49.201Z,20
2018-03-17T05:33:51.385Z,20
2018-03-17T05:34:53.447Z,20
2018-03-17T05:35:55.360Z,28
2018-03-17T05:36:57.348Z,28
2018-03-17T05:37:59.470Z,32
2018-03-17T05:39:00.903Z,36
2018-03-17T05:40:02.396Z,40
2018-03-17T05:41:04.510Z,44
2018-03-17T05:42:05.948Z,48
2018-03-17T05:43:07.447Z,52
2018-03-17T05:44:08.974Z,56
2018-03-17T05:45:10.656Z,60
2018-03-17T05:46:12.726Z,68
2018-03-17T05:47:14.294Z,76
2018-03-17T05:48:15.987Z,80
2018-03-17T05:49:18.028Z,100
2018-03-17T05:50:19.692Z,108
2018-03-17T05:51:21.196Z,116
2018-03-17T05:52:22.750Z,132
2018-03-17T05:53:24.227Z,156
2018-03-17T05:54:26.393Z,160
2018-03-17T05:55:28.487Z,160
2018-03-17T05:56:30.417Z,160
2018-03-17T05:57:32.480Z,172
2018-03-17T05:58:33.984Z,184
2018-03-17T05:59:35.419Z,196
2018-03-17T06:00:37.355Z,212
2018-03-17T06:01:38.826Z,228
2018-03-17T06:02:40.303Z,252
2018-03-17T06:03:41.761Z,248
2018-03-17T06:04:43.381Z,252
2018-03-17T06:05:44.868Z,248
2018-03-17T06:06:46.300Z,260
2018-03-17T06:07:47.900Z,276
2018-03-17T06:08:49.934Z,312
2018-03-17T06:09:51.488Z,324
2018-03-17T06:10:53.630Z,352
2018-03-17T06:11:55.771Z,352
2018-03-17T06:12:58.059Z,352
2018-03-17T06:13:59.992Z,376
2018-03-17T06:15:01.940Z,392
2018-03-17T06:16:04.074Z,444
2018-03-17T06:17:05.710Z,468
2018-03-17T06:18:07.716Z,468
2018-03-17T06:19:09.257Z,508
2018-03-17T06:20:10.719Z,520
2018-03-17T06:21:12.232Z,520
2018-03-17T06:22:13.675Z,544
2018-03-17T06:23:15.602Z,568
2018-03-17T06:24:17.233Z,592
2018-03-17T06:25:18.807Z,628
2018-03-17T06:26:20.735Z,616
2018-03-17T06:27:22.939Z,624
2018-03-17T06:28:24.534Z,616
2018-03-17T06:29:26.419Z,620
2018-03-17T06:30:28.073Z,628
2018-03-17T06:31:29.572Z,620
2018-03-17T06:32:31.536Z,628
2018-03-17T06:33:33.567Z,696
2018-03-17T06:34:35.552Z,676
2018-03-17T06:35:37.196Z,688
2018-03-17T06:36:39.234Z,740
2018-03-17T06:37:40.811Z,692
2018-03-17T06:38:42.851Z,720
2018-03-17T06:39:44.635Z,780
2018-03-17T06:40:46.505Z,676
2018-03-17T06:41:48.045Z,692
2018-03-17T06:42:49.507Z,716
2018-03-17T06:43:51.453Z,720
2018-03-17T06:44:53.310Z,668
2018-03-17T06:45:55.150Z,812
2018-03-17T06:46:56.778Z,800
2018-03-17T06:47:58.310Z,848
2018-03-17T06:49:00.185Z,828
2018-03-17T06:50:01.657Z,900
2018-03-17T06:51:03.467Z,888
2018-03-17T06:52:05.436Z,956
2018-03-17T06:53:07.302Z,876
2018-03-17T06:54:08.934Z,844
2018-03-17T06:55:10.767Z,944
2018-03-17T06:56:12.218Z,952
2018-03-17T06:57:14.093Z,908
2018-03-17T06:58:15.509Z,872
2018-03-17T06:59:17.603Z,824
2018-03-17T07:00:19.216Z,916
2018-03-17T07:01:20.724Z,916
2018-03-17T07:02:22.220Z,1080
2018-03-17T07:03:23.739Z,1092
2018-03-17T07:04:25.289Z,1040
2018-03-17T07:05:26.880Z,1112
2018-03-17T07:06:28.672Z,1156
2018-03-17T07:07:30.483Z,1156
2018-03-17T07:08:32.273Z,1080
2018-03-17T07:09:34.168Z,1184
2018-03-17T07:10:36.055Z,1132
2018-03-17T07:11:37.589Z,1120
2018-03-17T07:12:39.415Z,1132
2018-03-17T07:13:41.085Z,1128
2018-03-17T07:14:42.787Z,1180
2018-03-17T07:15:44.258Z,1268
2018-03-17T07:16:46.260Z,1340
2018-03-17T07:17:47.792Z,1336
2018-03-17T07:18:49.381Z,1420
2018-03-17T07:19:50.950Z,1424
2018-03-17T07:20:52.507Z,1460
2018-03-17T07:21:54.221Z,1448
2018-03-17T07:22:56.175Z,1488
2018-03-17T07:23:57.823Z,1424
2018-03-17T07:24:59.256Z,1484
2018-03-17T07:26:01.099Z,1568
2018-03-17T07:27:02.988Z,1600
2018-03-17T07:28:04.469Z,1676
2018-03-17T07:29:05.976Z,1736
2018-03-17T07:30:07.929Z,1672
2018-03-17T07:31:09.384Z,1804
2018-03-17T07:32:10.935Z,1988
2018-03-17T07:33:12.767Z,1916
2018-03-17T07:34:14.265Z,2036
2018-03-17T07:35:16.103Z,2128
2018-03-17T07:36:18.038Z,1936
2018-03-17T07:37:19.511Z,1956
2018-03-17T07:38:21.549Z,1972
2018-03-17T07:39:23.588Z,1972
2018-03-17T07:40:25.431Z,1960
2018-03-17T07:41:27.099Z,2072
2018-03-17T07:42:29.060Z,2028
2018-03-17T07:43:30.957Z,2356
2018-03-17T07:44:32.825Z,2648
2018-03-17T07:45:34.308Z,2692
2018-03-17T07:46:35.910Z,2740
2018-03-17T07:47:37.443Z,2748
2018-03-17T07:48:39.163Z,2808
2018-03-17T07:49:41.144Z,2852
2018-03-17T07:50:42.708Z,2844
2018-03-17T07:51:44.193Z,3012
2018-03-17T07:52:45.708Z,3252
2018-03-17T07:53:47.219Z,3284
2018-03-17T07:54:48.673Z,2952
2018-03-17T07:55:50.160Z,2840
2018-03-17T07:56:51.630Z,2936
2018-03-17T07:57:53.096Z,2772
2018-03-17T07:58:54.994Z,2800
2018-03-17T07:59:56.464Z,2712
2018-03-17T08:00:57.933Z,2904
2018-03-17T08:01:59.408Z,2820
2018-03-17T08:03:00.929Z,2860
2018-03-17T08:04:02.485Z,3124
2018-03-17T08:05:04.069Z,3288
2018-03-17T08:06:05.962Z,3156
2018-03-17T08:07:08.017Z,3140
2018-03-17T08:08:09.601Z,3088
2018-03-17T08:09:11.425Z,3184
2018-03-17T08:10:13.395Z,3128
2018-03-17T08:11:15.066Z,2940
2018-03-17T08:12:16.896Z,2740
2018-03-17T08:13:18.829Z,2512
2018-03-17T08:14:20.249Z,2692
2018-03-17T08:15:21.723Z,2768
2018-03-17T08:16:23.633Z,2728
2018-03-17T08:17:25.223Z,2868
2018-03-17T08:18:26.724Z,2928
2018-03-17T08:19:28.314Z,2812
2018-03-17T08:20:29.843Z,3228
2018-03-17T08:21:31.690Z,3404
2018-03-17T08:22:33.261Z,3864
2018-03-17T08:23:34.803Z,4436
2018-03-17T08:24:36.699Z,5120
2018-03-17T08:25:38.726Z,5624
2018-03-17T08:26:40.489Z,6304
2018-03-17T08:27:42.405Z,6716
2018-03-17T08:28:43.903Z,5816
2018-03-17T08:29:45.404Z,5628
2018-03-17T08:30:46.861Z,5908
2018-03-17T08:31:48.323Z,5552
2018-03-17T08:32:49.842Z,5268
2018-03-17T08:33:51.397Z,5916
2018-03-17T08:34:52.881Z,6020
2018-03-17T08:35:54.714Z,5620
2018-03-17T08:36:56.240Z,6064
2018-03-17T08:37:58.116Z,5772
2018-03-17T08:38:59.736Z,4920
2018-03-17T08:40:01.559Z,4860
2018-03-17T08:41:03.542Z,4680
2018-03-17T08:42:05.017Z,5444
2018-03-17T08:43:06.966Z,4316
2018-03-17T08:44:08.897Z,4448
2018-03-17T08:45:10.681Z,4736
2018-03-17T08:46:12.486Z,4852
2018-03-17T08:47:14.168Z,4800
2018-03-17T08:48:15.642Z,4668
2018-03-17T08:49:17.129Z,4496
2018-03-17T08:50:18.898Z,4940
2018-03-17T08:51:20.407Z,4308
2018-03-17T08:52:21.905Z,4628
2018-03-17T08:53:23.732Z,3884
2018-03-17T08:54:25.664Z,3920
2018-03-17T08:55:27.440Z,3788
2018-03-17T08:56:29.063Z,3788
2018-03-17T08:57:31.086Z,3560
2018-03-17T08:58:32.645Z,4336
2018-03-17T08:59:34.233Z,4872
2018-03-17T09:00:35.709Z,5140
2018-03-17T09:01:37.508Z,5024
2018-03-17T09:02:39.453Z,4932
2018-03-17T09:03:41.300Z,4976
2018-03-17T09:04:43.085Z,4768
2018-03-17T09:05:45.068Z,4964
2018-03-17T09:06:46.521Z,4256
2018-03-17T09:07:48.011Z,4208
2018-03-17T09:08:49.555Z,3800
2018-03-17T09:09:51.234Z,3804
2018-03-17T09:10:53.034Z,3796
2018-03-17T09:11:54.615Z,3676
2018-03-17T09:12:56.271Z,3588
2018-03-17T09:13:57.924Z,3444
2018-03-17T09:14:59.442Z,3760
2018-03-17T09:16:01.024Z,4240
2018-03-17T09:17:02.650Z,4276
2018-03-17T09:18:04.122Z,5052
2018-03-17T09:19:05.600Z,5008
2018-03-17T09:20:07.781Z,4572
2018-03-17T09:21:09.345Z,5020
2018-03-17T09:22:10.807Z,4676
2018-03-17T09:23:12.618Z,5128
2018-03-17T09:24:14.710Z,4940
2018-03-17T09:25:16.579Z,4816
2018-03-17T09:26:18.493Z,5564
2018-03-17T09:27:20.065Z,5876
2018-03-17T09:28:21.643Z,5956
2018-03-17T09:29:23.480Z,6344
2018-03-17T09:30:24.987Z,6208
2018-03-17T09:31:26.467Z,6380
2018-03-17T09:32:28.327Z,6328
2018-03-17T09:33:30.177Z,6124
2018-03-17T09:34:31.699Z,5896
2018-03-17T09:35:33.279Z,5632
2018-03-17T09:36:35.049Z,5516
2018-03-17T09:37:36.547Z,5340
2018-03-17T09:38:38.299Z,5088
2018-03-17T09:39:40.094Z,5000
2018-03-17T09:40:42.161Z,5552
2018-03-17T09:41:43.617Z,5656
2018-03-17T09:42:45.151Z,5200
2018-03-17T09:43:46.705Z,6280
2018-03-17T09:44:48.639Z,6660
2018-03-17T09:45:50.200Z,6088
2018-03-17T09:46:51.620Z,5260
2018-03-17T09:47:53.538Z,5596
2018-03-17T09:48:55.688Z,5376
2018-03-17T09:49:57.745Z,5368
2018-03-17T09:50:59.786Z,5368
2018-03-17T09:52:01.736Z,6060
2018-03-17T09:53:03.357Z,6048
2018-03-17T09:54:05.101Z,5436
2018-03-17T09:55:06.805Z,5784
2018-03-17T09:56:08.513Z,5880
2018-03-17T09:57:10.184Z,5960
2018-03-17T09:58:11.836Z,6304
2018-03-17T09:59:13.408Z,5488
2018-03-17T10:00:15.042Z,5876
2018-03-17T10:01:16.569Z,6780
2018-03-17T10:02:18.135Z,6540
2018-03-17T10:03:19.982Z,8420
2018-03-17T10:04:22.021Z,8904
2018-03-17T10:05:23.819Z,6892
2018-03-17T10:06:25.368Z,6256
2018-03-17T10:07:27.547Z,7312
2018-03-17T10:08:29.813Z,8120
2018-03-17T10:09:31.418Z,7168
2018-03-17T10:10:33.499Z,7740
2018-03-17T10:11:35.058Z,9736
2018-03-17T10:12:36.646Z,8600
2018-03-17T10:13:38.221Z,7720
2018-03-17T10:14:39.746Z,7208
2018-03-17T10:15:41.289Z,7424
2018-03-17T10:16:42.846Z,7544
2018-03-17T10:17:44.336Z,7552
2018-03-17T10:18:46.047Z,7748
2018-03-17T10:19:48.101Z,8348
2018-03-17T10:20:49.708Z,8300
2018-03-17T10:21:51.387Z,8528
2018-03-17T10:22:53.065Z,7840
2018-03-17T10:23:54.716Z,7500
2018-03-17T10:24:56.445Z,7896
2018-03-17T10:25:58.002Z,8084
2018-03-17T10:26:59.805Z,7712
2018-03-17T10:28:01.799Z,7052
2018-03-17T10:29:03.611Z,7732
2018-03-17T10:30:05.148Z,7700
2018-03-17T10:31:06.665Z,8488
2018-03-17T10:32:08.204Z,8800
2018-03-17T10:33:09.969Z,9560
2018-03-17T10:34:11.635Z,8740
2018-03-17T10:35:13.630Z,9096
2018-03-17T10:36:15.293Z,8212
2018-03-17T10:37:17.177Z,7920
2018-03-17T10:38:18.784Z,9360
2018-03-17T10:39:20.595Z,9460
2018-03-17T10:40:22.443Z,9444
2018-03-17T10:41:24.306Z,9776
2018-03-17T10:42:25.938Z,9632
2018-03-17T10:43:27.994Z,8448
2018-03-17T10:44:29.892Z,9688
2018-03-17T10:45:31.878Z,9728
2018-03-17T10:46:33.781Z,10208
2018-03-17T10:47:35.327Z,10492
2018-03-17T10:48:36.884Z,9960
2018-03-17T10:49:38.632Z,10756
2018-03-17T10:50:40.288Z,11772
2018-03-17T10:51:42.490Z,11712
2018-03-17T10:52:44.321Z,10336
2018-03-17T10:53:46.308Z,9348
2018-03-17T10:54:48.193Z,9516
2018-03-17T10:55:50.214Z,9952
2018-03-17T10:56:51.697Z,9512
2018-03-17T10:57:53.415Z,10272
2018-03-17T10:58:55.053Z,10856
2018-03-17T10:59:57.080Z,10672
2018-03-17T11:00:58.841Z,12104
2018-03-17T11:02:00.978Z,12140
2018-03-17T11:03:02.647Z,11624
2018-03-17T11:04:04.321Z,10512
2018-03-17T11:05:05.930Z,10276
2018-03-17T11:06:07.558Z,9260
2018-03-17T11:07:09.525Z,9728
2018-03-17T11:08:11.400Z,8848
2018-03-17T11:09:13.416Z,9668
2018-03-17T11:10:15.345Z,9820
2018-03-17T11:11:16.828Z,10632
2018-03-17T11:12:18.724Z,12708
2018-03-17T11:13:20.226Z,13848
2018-03-17T11:14:22.221Z,13144
2018-03-17T11:15:23.818Z,11636
2018-03-17T11:16:25.786Z,10664
2018-03-17T11:17:27.411Z,9228
2018-03-17T11:18:29.120Z,9592
2018-03-17T11:19:30.601Z,10288
2018-03-17T11:20:32.356Z,10480
2018-03-17T11:21:33.919Z,9992
2018-03-17T11:22:35.829Z,8768
2018-03-17T11:23:37.489Z,9480
2018-03-17T11:24:39.064Z,9824
2018-03-17T11:25:40.594Z,10704
2018-03-17T11:26:42.424Z,9684
2018-03-17T11:27:44.333Z,9668
2018-03-17T11:28:46.049Z,9944
2018-03-17T11:29:48.217Z,9728
2018-03-17T11:30:50.203Z,9620
2018-03-17T11:31:52.059Z,9096
2018-03-17T11:32:53.586Z,8272
2018-03-17T11:33:55.194Z,9204
2018-03-17T11:34:56.658Z,10548
2018-03-17T11:35:58.265Z,11308
2018-03-17T11:37:00.120Z,10964
2018-03-17T11:38:01.900Z,12496
2018-03-17T11:39:03.568Z,12376
2018-03-17T11:40:05.187Z,11636
2018-03-17T11:41:07.037Z,11380
2018-03-17T11:42:09.001Z,11988
2018-03-17T11:43:10.817Z,11636
2018-03-17T11:44:12.755Z,12192
2018-03-17T11:45:14.496Z,11236
2018-03-17T11:46:16.335Z,10164
2018-03-17T11:47:18.088Z,10452
2018-03-17T11:48:19.697Z,12028
2018-03-17T11:49:21.521Z,12788
2018-03-17T11:50:23.211Z,13028
2018-03-17T11:51:24.875Z,10720
2018-03-17T11:52:26.570Z,9480
2018-03-17T11:53:28.528Z,8536
2018-03-17T11:54:30.674Z,8512
2018-03-17T11:55:32.152Z,8252
2018-03-17T11:56:34.192Z,7948
2018-03-17T11:57:35.829Z,7748
2018-03-17T11:58:37.326Z,8652
2018-03-17T11:59:39.148Z,8572
2018-03-17T12:00:40.738Z,8924
2018-03-17T12:01:42.386Z,8892
2018-03-17T12:02:43.990Z,8096
2018-03-17T12:03:45.898Z,8548
2018-03-17T12:04:47.459Z,9200
2018-03-17T12:05:49.383Z,8564
2018-03-17T12:06:51.298Z,7568
2018-03-17T12:07:52.877Z,7168
2018-03-17T12:08:54.517Z,7176
2018-03-17T12:09:56.045Z,6672
2018-03-17T12:10:58.047Z,6832
2018-03-17T12:11:59.592Z,6540
2018-03-17T12:13:01.529Z,6484
2018-03-17T12:14:03.129Z,6732
2018-03-17T12:15:04.741Z,6884
2018-03-17T12:16:06.418Z,6640
2018-03-17T12:17:08.230Z,6868
2018-03-17T12:18:09.979Z,6300
2018-03-17T12:19:11.604Z,5872
2018-03-17T12:20:13.270Z,5440
2018-03-17T12:21:14.917Z,6764
2018-03-17T12:22:16.782Z,7292
2018-03-17T12:23:18.657Z,6488
2018-03-17T12:24:20.238Z,6628
2018-03-17T12:25:21.894Z,7352
2018-03-17T12:26:23.847Z,7208
2018-03-17T12:27:25.473Z,7044
2018-03-17T12:28:27.474Z,6848
2018-03-17T12:29:29.323Z,6312
2018-03-17T12:30:31.304Z,5924
2018-03-17T12:31:33.410Z,6080
2018-03-17T12:32:35.360Z,6016
2018-03-17T12:33:36.969Z,6172
2018-03-17T12:34:39.079Z,7488
2018-03-17T12:35:40.695Z,7200
2018-03-17T12:36:42.341Z,6836
2018-03-17T12:37:44.051Z,6948
2018-03-17T12:38:45.580Z,6376
2018-03-17T12:39:47.194Z,6388
2018-03-17T12:40:49.257Z,6940
2018-03-17T12:41:50.855Z,6340
2018-03-17T12:42:52.463Z,7064
2018-03-17T12:43:54.046Z,7716
2018-03-17T12:44:55.953Z,8312
2018-03-17T12:45:57.886Z,7964
2018-03-17T12:46:59.854Z,7452
2018-03-17T12:48:01.886Z,7172
2018-03-17T12:49:03.892Z,6484
2018-03-17T12:50:05.728Z,6484
2018-03-17T12:51:07.769Z,7300
2018-03-17T12:52:09.388Z,7088
2018-03-17T12:53:11.050Z,6240
2018-03-17T12:54:12.667Z,5440
2018-03-17T12:55:14.207Z,5844
2018-03-17T12:56:15.949Z,6188
2018-03-17T12:57:17.720Z,5716
2018-03-17T12:58:19.300Z,5312
2018-03-17T12:59:21.297Z,6056
2018-03-17T13:00:23.336Z,5876
2018-03-17T13:01:25.201Z,6548
2018-03-17T13:02:27.005Z,6436
2018-03-17T13:03:28.813Z,5792
2018-03-17T13:04:30.851Z,6116
2018-03-17T13:05:32.768Z,5548
2018-03-17T13:06:34.341Z,5520
2018-03-17T13:07:36.290Z,5456
2018-03-17T13:08:38.307Z,5396
2018-03-17T13:09:40.291Z,5244
2018-03-17T13:10:42.069Z,5476
2018-03-17T13:11:43.735Z,5000
2018-03-17T13:12:45.695Z,5296
2018-03-17T13:13:47.388Z,5012
2018-03-17T13:14:49.042Z,5088
2018-03-17T13:15:50.937Z,5092
2018-03-17T13:16:52.861Z,5560
2018-03-17T13:17:54.515Z,6040
2018-03-17T13:18:56.576Z,5676
2018-03-17T13:19:58.274Z,5496
2018-03-17T13:20:59.853Z,5808
2018-03-17T13:22:01.458Z,6284
2018-03-17T13:23:03.388Z,5852
2018-03-17T13:24:05.132Z,5476
2018-03-17T13:25:06.940Z,5324
2018-03-17T13:26:08.821Z,5072
2018-03-17T13:27:10.844Z,5688
2018-03-17T13:28:12.671Z,5980
2018-03-17T13:29:14.528Z,6084
2018-03-17T13:30:16.268Z,5848
2018-03-17T13:31:18.194Z,5780
2018-03-17T13:32:19.888Z,5700
2018-03-17T13:33:21.831Z,5808
2018-03-17T13:34:23.911Z,6272
2018-03-17T13:35:25.547Z,6120
2018-03-17T13:36:27.687Z,6236
2018-03-17T13:37:29.311Z,6256
2018-03-17T13:38:30.921Z,6012
2018-03-17T13:39:32.562Z,6224
2018-03-17T13:40:34.222Z,5820
2018-03-17T13:41:35.825Z,5400
2018-03-17T13:42:37.613Z,5080
2018-03-17T13:43:39.714Z,5192
2018-03-17T13:44:41.650Z,5424
2018-03-17T13:45:43.652Z,5428
2018-03-17T13:46:45.232Z,5632
2018-03-17T13:47:46.790Z,5268
2018-03-17T13:48:48.699Z,5436
2018-03-17T13:49:50.670Z,5320
2018-03-17T13:50:52.610Z,5352
2018-03-17T13:51:54.328Z,5340
2018-03-17T13:52:56.204Z,5360
2018-03-17T13:53:58.076Z,5056
2018-03-17T13:55:00.141Z,4712
2018-03-17T13:56:01.704Z,5232
2018-03-17T13:57:03.662Z,4936
2018-03-17T13:58:05.274Z,5072
2018-03-17T13:59:06.896Z,4816
2018-03-17T14:00:08.511Z,4376
2018-03-17T14:01:10.124Z,4308
2018-03-17T14:02:11.925Z,4752
2018-03-17T14:03:13.698Z,4640
2018-03-17T14:04:15.522Z,5248
2018-03-17T14:05:17.200Z,4664
2018-03-17T14:06:18.872Z,4368
2018-03-17T14:07:20.558Z,4704
2018-03-17T14:08:22.578Z,4644
2018-03-17T14:09:24.146Z,5096
2018-03-17T14:10:25.985Z,5132
2018-03-17T14:11:27.698Z,5196
2018-03-17T14:12:29.577Z,4632
2018-03-17T14:13:31.252Z,4432
2018-03-17T14:14:32.788Z,5652
2018-03-17T14:15:34.468Z,4868
2018-03-17T14:16:36.394Z,4680